Time;durP1;ratioP1;P1;durP2;ratioP2;P2;SDS_P1;SDS_P2;PMS_P1;PMS_P2;Temp;Humidity;BMP_temperature;BMP_pressure;BME280_temperature;BME280_humidity;BME280_pressure;Samples;Min_cycle;Max_cycle;Signal;HPM_P1;HPM_P2
2021/12/06 00:02:22;;;;;;;2.08;0.65;;;6.10;99.90;;;;;;5012547;28;20065;-75
2021/12/06 00:04:48;;;;;;;3.20;0.90;;;6.10;99.90;;;;;;4978376;28;20042;-73
2021/12/06 00:07:20;;;;;;;2.65;0.85;;;6.10;99.90;;;;;;4998639;28;20705;-75
2021/12/06 00:09:46;;;;;;;2.85;0.88;;;6.10;99.90;;;;;;4985141;28;20443;-72
2021/12/06 00:12:14;;;;;;;1.77;0.75;;;6.10;99.90;;;;;;5004747;28;20124;-74
2021/12/06 00:14:43;;;;;;;2.33;0.80;;;6.00;99.90;;;;;;5003049;28;20065;-71
2021/12/06 00:17:14;;;;;;;1.48;0.80;;;6.00;99.90;;;;;;5004201;28;20117;-72
2021/12/06 00:19:43;;;;;;;1.02;0.60;;;6.00;99.90;;;;;;5001620;28;20056;-74
2021/12/06 00:22:12;;;;;;;2.10;1.00;;;5.90;99.90;;;;;;5002971;28;20037;-73
2021/12/06 00:24:39;;;;;;;4.20;0.90;;;6.00;99.90;;;;;;5005501;28;20046;-75
2021/12/06 00:27:05;;;;;;;2.20;0.75;;;6.00;99.90;;;;;;5005827;28;20041;-73
2021/12/06 00:29:31;;;;;;;2.05;0.80;;;6.00;99.90;;;;;;5002489;28;20050;-72
2021/12/06 00:31:57;;;;;;;1.80;0.80;;;6.00;99.90;;;;;;4992746;28;20065;-71
2021/12/06 00:34:25;;;;;;;2.35;0.98;;;6.00;99.90;;;;;;5009881;28;20042;-74
2021/12/06 00:37:05;;;;;;;2.38;0.80;;;5.90;99.90;;;;;;4990033;28;20117;-71
2021/12/06 00:39:32;;;;;;;1.63;0.80;;;5.80;99.90;;;;;;4992839;28;20041;-75
2021/12/06 00:42:00;;;;;;;1.40;0.70;;;5.90;99.90;;;;;;4982916;28;20775;-71
2021/12/06 00:44:26;;;;;;;3.22;0.90;;;5.90;99.90;;;;;;4980672;28;20438;-75
2021/12/06 00:46:52;;;;;;;3.55;1.30;;;5.90;99.90;;;;;;4967478;28;20096;-71
2021/12/06 00:49:18;;;;;;;2.55;1.17;;;5.90;99.90;;;;;;4984175;28;20489;-73
2021/12/06 00:51:44;;;;;;;3.72;0.88;;;5.90;99.90;;;;;;5000856;28;20069;-76
2021/12/06 00:54:12;;;;;;;2.13;0.80;;;5.90;99.90;;;;;;5004323;28;20120;-75
2021/12/06 00:56:39;;;;;;;1.17;0.63;;;5.90;99.90;;;;;;5009053;28;20436;-75
2021/12/06 00:59:05;;;;;;;1.63;0.85;;;6.00;99.90;;;;;;5010877;28;20103;-73
2021/12/06 01:01:32;;;;;;;2.70;1.00;;;6.00;99.90;;;;;;4994909;28;20039;-72
2021/12/06 01:03:59;;;;;;;2.10;0.90;;;6.10;99.90;;;;;;5009262;28;20319;-77
2021/12/06 01:06:25;;;;;;;2.47;0.95;;;6.00;99.90;;;;;;5010484;28;20038;-72
2021/12/06 01:08:53;;;;;;;1.65;0.63;;;5.90;99.90;;;;;;5009936;28;20129;-73
2021/12/06 01:11:19;;;;;;;2.85;1.10;;;6.00;99.90;;;;;;5024117;28;20170;-72
2021/12/06 01:13:45;;;;;;;3.15;0.98;;;5.90;99.90;;;;;;4992362;28;20057;-73
2021/12/06 01:16:11;;;;;;;1.80;0.80;;;5.90;99.90;;;;;;5002157;28;20573;-76
2021/12/06 01:18:39;;;;;;;2.30;1.00;;;5.90;99.90;;;;;;4989890;28;20041;-72
2021/12/06 01:21:19;;;;;;;2.33;1.10;;;5.90;99.90;;;;;;4993906;28;20850;-76
2021/12/06 01:31:53;;;;;;;2.55;1.08;;;5.90;99.90;;;;;;4985131;28;20053;-71
2021/12/06 01:39:53;;;;;;;5.93;1.67;;;5.70;99.90;;;;;;5010497;28;20145;-74
2021/12/06 01:42:19;;;;;;;5.07;1.40;;;5.70;99.90;;;;;;4995843;28;20489;-74
2021/12/06 01:44:49;;;;;;;1.95;1.10;;;5.70;99.90;;;;;;4999684;28;20037;-77
2021/12/06 01:47:23;;;;;;;2.55;1.00;;;5.70;99.90;;;;;;5013743;28;20091;-74
2021/12/06 01:49:54;;;;;;;2.35;1.02;;;5.60;99.90;;;;;;4999865;28;20052;-72
2021/12/06 01:52:26;;;;;;;5.95;1.40;;;5.70;99.90;;;;;;4997800;28;20351;-73
2021/12/06 01:54:54;;;;;;;2.42;1.10;;;5.50;99.90;;;;;;5005893;28;20046;-72
2021/12/06 01:57:22;;;;;;;3.60;1.13;;;5.60;99.90;;;;;;5009321;28;20050;-76
2021/12/06 01:59:49;;;;;;;2.05;1.00;;;5.60;99.90;;;;;;5007822;28;20048;-72
2021/12/06 02:02:16;;;;;;;3.75;1.10;;;5.60;99.90;;;;;;5011128;28;20129;-73
2021/12/06 02:04:43;;;;;;;2.38;0.90;;;5.60;99.90;;;;;;5017730;28;20040;-72
2021/12/06 02:07:14;;;;;;;3.38;0.90;;;5.60;99.90;;;;;;4995528;28;20068;-72
2021/12/06 02:09:44;;;;;;;1.92;0.90;;;5.60;99.90;;;;;;4999406;28;20101;-71
2021/12/06 02:12:12;;;;;;;1.73;0.88;;;5.60;99.90;;;;;;5007719;28;20033;-76
2021/12/06 02:14:59;;;;;;;2.38;1.02;;;5.70;99.90;;;;;;5011960;28;20042;-72
2021/12/06 02:17:30;;;;;;;1.85;0.93;;;5.70;99.90;;;;;;5005712;28;20044;-72
2021/12/06 02:20:04;;;;;;;4.78;1.00;;;5.70;99.90;;;;;;4991430;28;20035;-74
2021/12/06 02:22:35;;;;;;;3.60;1.17;;;5.80;99.90;;;;;;4983584;28;20103;-73
2021/12/06 02:25:13;;;;;;;2.10;0.82;;;5.60;99.90;;;;;;5014903;28;20034;-72
2021/12/06 02:27:40;;;;;;;2.30;1.00;;;5.70;99.90;;;;;;5001102;28;20553;-72
2021/12/06 02:30:09;;;;;;;2.22;0.88;;;5.70;99.90;;;;;;5014987;28;20438;-77
2021/12/06 02:32:36;;;;;;;2.00;0.90;;;5.70;99.90;;;;;;5016473;28;20048;-77
2021/12/06 02:35:06;;;;;;;2.72;1.10;;;5.70;99.90;;;;;;4996662;28;20034;-73
2021/12/06 02:37:36;;;;;;;2.10;1.02;;;5.70;99.90;;;;;;4982710;28;20026;-72
2021/12/06 02:40:13;;;;;;;2.78;0.70;;;5.70;99.90;;;;;;4992974;28;20125;-77
2021/12/06 02:42:43;;;;;;;1.65;0.85;;;5.70;99.90;;;;;;5008104;28;20198;-75
2021/12/06 02:45:12;;;;;;;2.10;0.70;;;5.70;99.90;;;;;;4988476;28;20042;-74
2021/12/06 02:47:39;;;;;;;2.50;0.90;;;5.60;99.90;;;;;;5006331;28;20030;-73
2021/12/06 02:50:09;;;;;;;5.05;0.77;;;5.60;99.90;;;;;;4981541;28;20170;-72
2021/12/06 02:52:35;;;;;;;1.58;0.60;;;5.60;99.90;;;;;;4996522;28;20030;-73
2021/12/06 02:55:12;;;;;;;1.65;0.70;;;5.60;99.90;;;;;;4998901;28;20088;-73
2021/12/06 02:57:38;;;;;;;1.48;0.50;;;5.60;99.90;;;;;;4985286;28;20038;-72
2021/12/06 03:00:10;;;;;;;1.98;0.60;;;5.70;99.90;;;;;;5007828;28;20042;-76
2021/12/06 03:02:37;;;;;;;4.05;0.60;;;5.90;99.90;;;;;;5010206;28;20033;-73
2021/12/06 03:05:04;;;;;;;1.40;0.68;;;5.90;99.90;;;;;;4986384;28;20053;-75
2021/12/06 03:07:35;;;;;;;2.65;0.70;;;5.90;99.90;;;;;;5000194;28;20081;-73
2021/12/06 03:10:04;;;;;;;1.35;0.60;;;6.00;99.90;;;;;;5015293;28;20120;-75
2021/12/06 03:12:30;;;;;;;1.88;0.50;;;6.00;99.90;;;;;;5012592;28;20125;-71
2021/12/06 03:14:59;;;;;;;2.85;0.60;;;6.10;99.90;;;;;;4993562;28;20095;-77
2021/12/06 03:17:28;;;;;;;1.10;0.55;;;6.00;99.90;;;;;;5023439;28;20034;-76
2021/12/06 03:19:54;;;;;;;1.75;0.63;;;6.00;99.90;;;;;;4991920;28;20132;-75
2021/12/06 03:22:20;;;;;;;2.40;0.60;;;6.00;99.90;;;;;;5010610;28;20034;-74
2021/12/06 03:24:48;;;;;;;2.80;0.63;;;5.90;99.90;;;;;;4992798;28;20425;-72
2021/12/06 03:27:15;;;;;;;1.10;0.57;;;5.90;99.90;;;;;;5007009;28;20061;-77
2021/12/06 03:29:42;;;;;;;1.92;0.63;;;5.90;99.90;;;;;;4984843;28;20047;-73
2021/12/06 03:32:10;;;;;;;1.15;0.55;;;5.90;99.90;;;;;;5003362;28;20046;-73
2021/12/06 03:34:37;;;;;;;1.30;0.57;;;6.00;99.90;;;;;;5024288;28;20037;-74
2021/12/06 03:37:05;;;;;;;1.73;0.75;;;6.10;99.90;;;;;;4989435;28;20042;-73
2021/12/06 03:39:38;;;;;;;0.95;0.40;;;6.00;99.90;;;;;;5018875;28;20026;-77
2021/12/06 03:42:07;;;;;;;0.63;0.50;;;5.90;99.90;;;;;;5005156;28;20049;-77
2021/12/06 03:44:34;;;;;;;2.15;0.60;;;5.90;99.90;;;;;;4997543;28;20038;-75
2021/12/06 03:47:09;;;;;;;1.25;0.40;;;5.90;99.90;;;;;;4993583;28;20045;-73
2021/12/06 03:49:36;;;;;;;0.90;0.40;;;6.00;99.90;;;;;;5003433;28;20120;-74
2021/12/06 03:52:03;;;;;;;1.20;0.60;;;6.00;99.90;;;;;;5010826;28;20088;-72
2021/12/06 03:54:30;;;;;;;3.22;0.52;;;6.00;99.90;;;;;;5009272;28;20041;-75
2021/12/06 03:56:57;;;;;;;1.95;0.73;;;6.00;99.90;;;;;;4996569;28;20433;-71
2021/12/06 03:59:24;;;;;;;1.48;0.60;;;6.00;99.90;;;;;;5008304;28;20060;-75
2021/12/06 04:01:53;;;;;;;1.92;0.68;;;6.10;99.90;;;;;;5010234;28;20048;-71
2021/12/06 04:04:19;;;;;;;1.58;0.73;;;6.00;99.90;;;;;;5007698;28;20116;-73
2021/12/06 04:06:47;;;;;;;2.50;0.65;;;5.90;99.90;;;;;;5010212;28;20076;-72
2021/12/06 04:09:15;;;;;;;1.30;0.40;;;6.00;99.90;;;;;;5001048;28;20046;-74
2021/12/06 04:11:42;;;;;;;1.20;0.52;;;6.00;99.90;;;;;;5006480;28;20037;-76
2021/12/06 04:14:08;;;;;;;1.50;0.60;;;6.10;99.90;;;;;;5002168;28;20133;-74
2021/12/06 04:16:35;;;;;;;1.38;0.57;;;6.00;99.90;;;;;;4999238;28;20038;-72
2021/12/06 04:19:01;;;;;;;3.50;0.40;;;6.10;99.90;;;;;;5016555;28;20045;-77
2021/12/06 04:21:28;;;;;;;1.65;0.70;;;6.10;99.90;;;;;;5012174;28;20069;-73
2021/12/06 04:23:53;;;;;;;2.17;0.50;;;6.00;99.90;;;;;;5007730;28;20053;-72
2021/12/06 04:26:20;;;;;;;2.30;0.50;;;6.10;99.90;;;;;;4985241;28;20022;-77
2021/12/06 04:28:59;;;;;;;1.95;0.60;;;6.00;99.90;;;;;;5005740;28;20485;-73
2021/12/06 04:31:33;;;;;;;2.63;0.50;;;6.20;99.90;;;;;;4986876;28;20092;-72
2021/12/06 04:33:59;;;;;;;2.45;0.57;;;6.20;99.90;;;;;;5000445;28;20466;-73
2021/12/06 04:36:26;;;;;;;1.52;0.50;;;6.20;99.90;;;;;;5007803;28;20792;-76
2021/12/06 04:38:53;;;;;;;1.77;0.50;;;6.30;99.90;;;;;;4998329;28;20042;-73
2021/12/06 04:41:19;;;;;;;2.17;0.60;;;6.30;99.90;;;;;;5006689;28;20034;-74
2021/12/06 04:43:46;;;;;;;2.17;0.70;;;6.30;99.90;;;;;;5000997;28;20130;-75
2021/12/06 04:46:12;;;;;;;2.38;0.70;;;6.40;99.90;;;;;;5001398;28;20100;-72
2021/12/06 04:48:38;;;;;;;3.47;0.63;;;6.30;99.90;;;;;;4987701;28;20043;-73
2021/12/06 04:51:06;;;;;;;1.67;0.63;;;6.30;99.90;;;;;;4977151;28;20095;-76
2021/12/06 04:53:37;;;;;;;3.08;0.70;;;6.40;99.90;;;;;;4996836;28;20077;-72
2021/12/06 04:56:09;;;;;;;1.38;0.50;;;6.30;99.90;;;;;;5005491;28;20045;-76
2021/12/06 04:58:53;;;;;;;1.30;0.50;;;6.30;99.90;;;;;;5008992;28;20566;-72
2021/12/06 05:01:24;;;;;;;5.97;0.70;;;6.30;99.90;;;;;;5006476;28;20136;-75
2021/12/06 05:03:51;;;;;;;2.03;0.80;;;6.30;99.90;;;;;;5007944;28;20119;-72
2021/12/06 05:06:22;;;;;;;1.92;0.65;;;6.30;99.90;;;;;;5004928;28;20599;-76
2021/12/06 05:08:52;;;;;;;2.47;0.70;;;6.20;99.90;;;;;;4980836;28;20557;-72
2021/12/06 05:11:20;;;;;;;2.03;0.65;;;6.30;99.90;;;;;;4959240;28;20093;-72
2021/12/06 05:13:48;;;;;;;1.95;0.70;;;6.30;99.90;;;;;;4992971;28;20125;-72
2021/12/06 05:16:15;;;;;;;2.80;0.60;;;6.20;99.90;;;;;;4990207;28;20054;-76
2021/12/06 05:18:42;;;;;;;2.47;0.63;;;6.20;99.90;;;;;;4989009;28;20052;-72
2021/12/06 05:21:09;;;;;;;2.30;0.52;;;6.20;99.90;;;;;;5018256;28;20374;-76
2021/12/06 05:23:35;;;;;;;1.60;0.60;;;6.20;99.90;;;;;;5006773;28;20041;-72
2021/12/06 05:26:03;;;;;;;1.50;0.93;;;6.10;99.90;;;;;;5001156;28;20030;-73
2021/12/06 05:28:32;;;;;;;2.33;0.70;;;6.10;99.90;;;;;;4991361;28;20451;-72
2021/12/06 05:31:00;;;;;;;2.90;0.60;;;6.00;99.90;;;;;;4992595;28;20041;-72
2021/12/06 05:33:30;;;;;;;2.63;0.57;;;6.20;99.90;;;;;;4999572;28;20113;-73
2021/12/06 05:36:01;;;;;;;1.30;0.50;;;6.20;99.90;;;;;;4991363;28;20056;-76
2021/12/06 05:38:29;;;;;;;2.28;0.50;;;6.10;99.90;;;;;;4998894;28;20535;-74
2021/12/06 05:40:56;;;;;;;1.95;0.70;;;6.20;99.90;;;;;;5000527;28;20101;-74
2021/12/06 05:43:23;;;;;;;2.30;0.68;;;6.10;99.90;;;;;;4980261;28;20169;-72
2021/12/06 05:45:50;;;;;;;0.70;0.40;;;6.20;99.90;;;;;;4995878;28;20145;-73
2021/12/06 05:48:17;;;;;;;0.93;0.50;;;6.20;99.90;;;;;;4981521;28;20041;-72
2021/12/06 05:50:46;;;;;;;1.60;0.50;;;6.10;99.90;;;;;;4985518;28;20093;-71
2021/12/06 05:53:12;;;;;;;1.20;0.45;;;6.20;99.90;;;;;;4975395;28;20088;-73
2021/12/06 05:55:38;;;;;;;3.22;0.60;;;6.20;99.90;;;;;;4982414;28;20097;-73
2021/12/06 05:58:06;;;;;;;3.83;0.57;;;6.10;99.90;;;;;;4958232;28;20544;-73
2021/12/06 06:00:32;;;;;;;2.33;0.50;;;6.20;99.90;;;;;;5004304;28;20033;-72
2021/12/06 06:03:02;;;;;;;2.35;0.60;;;6.00;99.90;;;;;;4990208;28;20030;-76
2021/12/06 06:05:30;;;;;;;3.20;0.68;;;6.00;99.90;;;;;;4985583;28;20041;-77
2021/12/06 06:07:56;;;;;;;0.70;0.45;;;6.00;99.90;;;;;;5011414;28;20924;-72
2021/12/06 06:10:22;;;;;;;1.70;0.40;;;6.00;99.90;;;;;;5007197;28;20065;-75
2021/12/06 06:12:48;;;;;;;2.40;0.60;;;6.00;99.90;;;;;;5012387;28;20103;-76
2021/12/06 06:15:15;;;;;;;1.52;0.50;;;6.00;99.90;;;;;;4989665;28;20042;-73
2021/12/06 06:17:43;;;;;;;1.95;0.73;;;6.00;99.90;;;;;;5010249;28;20044;-73
2021/12/06 06:20:27;;;;;;;1.67;0.40;;;6.00;99.90;;;;;;5011507;28;20045;-72
2021/12/06 06:22:53;;;;;;;;;;;6.00;99.90;;;;;;5012453;28;20045;-75
2021/12/06 06:25:19;;;;;;;1.13;0.52;;;5.90;99.90;;;;;;5011521;28;19913;-73
2021/12/06 06:27:45;;;;;;;1.15;0.50;;;5.90;99.90;;;;;;4995387;28;20100;-71
2021/12/06 06:30:14;;;;;;;1.92;0.60;;;5.80;99.90;;;;;;5005831;28;20041;-73
2021/12/06 06:32:41;;;;;;;2.83;0.75;;;5.70;99.90;;;;;;5012876;28;20034;-72
2021/12/06 06:35:09;;;;;;;2.78;0.60;;;5.70;99.90;;;;;;5011995;28;20374;-73
2021/12/06 06:37:35;;;;;;;1.13;0.47;;;5.60;99.90;;;;;;5013035;28;20504;-75
2021/12/06 06:40:03;;;;;;;3.47;1.13;;;5.60;99.90;;;;;;5015170;28;20054;-75
2021/12/06 06:42:29;;;;;;;1.98;0.60;;;5.50;99.90;;;;;;5002804;28;20044;-75
2021/12/06 06:44:56;;;;;;;3.50;0.57;;;5.50;99.90;;;;;;5011184;28;20428;-73
2021/12/06 06:47:23;;;;;;;2.83;0.63;;;5.60;99.90;;;;;;5016349;28;20050;-73
2021/12/06 06:49:50;;;;;;;1.60;0.50;;;5.60;99.90;;;;;;4996779;28;20488;-77
2021/12/06 06:52:17;;;;;;;1.80;0.60;;;5.60;99.90;;;;;;4993915;28;20094;-72
2021/12/06 06:54:44;;;;;;;2.05;0.63;;;5.60;99.90;;;;;;5016424;28;20048;-75
2021/12/06 06:57:10;;;;;;;1.92;0.60;;;5.70;99.90;;;;;;4992417;28;20062;-72
2021/12/06 06:59:36;;;;;;;1.98;0.45;;;5.70;99.90;;;;;;4990684;28;20046;-74
2021/12/06 07:02:03;;;;;;;2.75;0.50;;;5.70;99.90;;;;;;5001172;28;20042;-76
2021/12/06 07:04:30;;;;;;;2.60;0.80;;;5.60;99.90;;;;;;5006550;28;20033;-73
2021/12/06 07:06:57;;;;;;;1.75;0.60;;;5.70;99.90;;;;;;5011792;28;20128;-75
2021/12/06 07:09:23;;;;;;;3.30;0.52;;;5.70;99.90;;;;;;5012065;28;20056;-72
2021/12/06 07:11:50;;;;;;;1.55;0.60;;;5.70;99.90;;;;;;5006579;28;20038;-74
2021/12/06 07:14:18;;;;;;;2.83;0.93;;;5.70;99.90;;;;;;4999150;28;20489;-72
2021/12/06 07:16:46;;;;;;;2.72;0.98;;;5.80;99.90;;;;;;5007631;28;20060;-76
2021/12/06 07:19:12;;;;;;;1.20;0.60;;;5.80;99.90;;;;;;5009624;28;20045;-75
2021/12/06 07:21:38;;;;;;;1.88;0.70;;;5.80;99.90;;;;;;5014458;28;20034;-75
2021/12/06 07:24:05;;;;;;;3.88;0.60;;;5.90;99.90;;;;;;5015073;28;20463;-72
2021/12/06 07:26:31;;;;;;;5.50;0.77;;;5.90;99.90;;;;;;4995994;28;20029;-73
2021/12/06 07:28:59;;;;;;;3.45;0.68;;;6.00;99.90;;;;;;5013702;28;20049;-74
2021/12/06 07:31:26;;;;;;;2.60;0.80;;;6.10;99.90;;;;;;5003588;28;20050;-71
2021/12/06 07:33:55;;;;;;;3.58;0.90;;;6.10;99.90;;;;;;5003836;28;20054;-73
2021/12/06 07:36:22;;;;;;;3.67;1.00;;;6.10;99.90;;;;;;5000381;28;20046;-75
2021/12/06 07:38:50;;;;;;;1.50;0.57;;;6.20;99.90;;;;;;5009345;28;20080;-73
2021/12/06 07:41:19;;;;;;;3.20;1.20;;;6.30;99.90;;;;;;5004776;28;20038;-73
2021/12/06 07:43:45;;;;;;;1.75;0.80;;;6.30;99.90;;;;;;4997678;28;20045;-75
2021/12/06 07:46:12;;;;;;;3.83;0.80;;;6.30;99.90;;;;;;5003316;28;20053;-72
2021/12/06 07:48:40;;;;;;;3.53;0.73;;;6.40;99.90;;;;;;5008839;28;20064;-76
2021/12/06 07:51:07;;;;;;;2.25;0.85;;;6.50;99.90;;;;;;5007508;28;20080;-74
2021/12/06 07:53:38;;;;;;;3.92;0.63;;;6.50;99.90;;;;;;5005442;28;20393;-74
2021/12/06 07:56:04;;;;;;;3.45;0.80;;;6.60;99.90;;;;;;5001353;28;20042;-73
2021/12/06 07:58:30;;;;;;;3.08;0.70;;;6.60;99.90;;;;;;5004647;28;20084;-73
2021/12/06 08:00:56;;;;;;;4.20;0.90;;;6.70;99.90;;;;;;4992078;28;20046;-74
2021/12/06 08:03:26;;;;;;;2.50;0.68;;;6.80;99.90;;;;;;5006569;28;20038;-73
2021/12/06 08:05:53;;;;;;;1.75;0.70;;;6.80;99.90;;;;;;5004018;28;20049;-74
2021/12/06 08:08:23;;;;;;;3.53;0.80;;;6.90;99.90;;;;;;5000007;28;20133;-74
2021/12/06 08:10:57;;;;;;;2.53;0.70;;;7.20;99.90;;;;;;5009403;28;20428;-75
2021/12/06 08:13:27;;;;;;;4.80;0.80;;;7.10;99.90;;;;;;4998709;28;20038;-73
2021/12/06 08:15:56;;;;;;;3.10;2.83;;;7.10;99.90;;;;;;4983597;28;20034;-73
2021/12/06 08:18:22;;;;;;;7.03;3.03;;;8.80;99.90;;;;;;4997114;28;20046;-75
2021/12/06 08:20:49;;;;;;;2.45;1.90;;;9.70;99.80;;;;;;5016012;28;20081;-75
2021/12/06 08:23:16;;;;;;;4.90;1.33;;;10.00;99.20;;;;;;5005687;28;20046;-72
2021/12/06 08:25:44;;;;;;;2.78;1.00;;;10.10;98.70;;;;;;4997979;28;20386;-73
2021/12/06 08:28:10;;;;;;;3.28;1.23;;;10.40;98.60;;;;;;5002133;28;20046;-72
2021/12/06 08:30:36;;;;;;;4.47;1.50;;;10.70;97.90;;;;;;5007466;28;20096;-75
2021/12/06 08:33:05;;;;;;;5.07;1.45;;;11.10;97.60;;;;;;5002106;28;20037;-73
2021/12/06 08:35:32;;;;;;;5.05;1.33;;;11.10;97.40;;;;;;4997961;28;20055;-76
2021/12/06 08:37:59;;;;;;;2.97;1.08;;;11.20;97.20;;;;;;4987363;28;20037;-74
2021/12/06 08:40:27;;;;;;;2.08;1.00;;;11.10;96.90;;;;;;5006771;28;20030;-76
2021/12/06 08:42:54;;;;;;;4.13;1.17;;;11.20;97.00;;;;;;5005975;28;20513;-74
2021/12/06 08:45:21;;;;;;;3.60;1.40;;;10.50;97.00;;;;;;4999266;28;20070;-73
2021/12/06 08:47:48;;;;;;;3.15;0.88;;;10.10;97.60;;;;;;4984469;28;20436;-72
2021/12/06 08:50:19;;;;;;;2.72;0.90;;;9.80;97.90;;;;;;4993062;28;20134;-74
2021/12/06 08:52:47;;;;;;;4.00;1.02;;;9.60;98.20;;;;;;4978830;28;20041;-73
2021/12/06 08:55:14;;;;;;;2.28;0.77;;;9.50;98.20;;;;;;5000248;28;20037;-74
2021/12/06 08:57:41;;;;;;;3.65;0.73;;;9.40;98.20;;;;;;5005462;28;20393;-74
2021/12/06 09:00:17;;;;;;;3.42;0.80;;;9.30;98.40;;;;;;4988678;28;20042;-72
2021/12/06 09:02:44;;;;;;;1.77;0.82;;;9.20;98.60;;;;;;5010664;28;20125;-77
2021/12/06 09:05:12;;;;;;;4.15;1.00;;;9.20;98.60;;;;;;5005588;28;20520;-72
2021/12/06 09:07:38;;;;;;;4.25;1.45;;;9.40;98.50;;;;;;4994553;28;20512;-76
2021/12/06 09:10:06;;;;;;;3.50;1.25;;;9.40;98.40;;;;;;4969552;28;20042;-73
2021/12/06 09:12:33;;;;;;;2.78;1.40;;;9.30;98.30;;;;;;5001566;28;20038;-77
2021/12/06 09:15:05;;;;;;;4.25;1.98;;;9.40;98.20;;;;;;5004733;28;20038;-73
2021/12/06 09:17:32;;;;;;;4.07;1.30;;;9.50;98.20;;;;;;5006427;28;20081;-73
2021/12/06 09:19:58;;;;;;;4.40;1.10;;;9.80;98.00;;;;;;5012391;28;20306;-75
2021/12/06 09:22:25;;;;;;;1.65;0.80;;;10.20;97.60;;;;;;5012655;28;20037;-74
2021/12/06 09:24:51;;;;;;;5.30;1.00;;;10.40;97.10;;;;;;5013665;28;20038;-73
2021/12/06 09:27:18;;;;;;;1.70;0.75;;;10.60;96.60;;;;;;4998286;28;20061;-74
2021/12/06 09:29:45;;;;;;;2.65;1.00;;;10.90;96.20;;;;;;5005076;28;20413;-74
2021/12/06 09:32:14;;;;;;;2.53;0.75;;;10.80;96.30;;;;;;4995176;28;20034;-73
2021/12/06 09:34:44;;;;;;;4.20;1.20;;;11.10;96.20;;;;;;4999660;28;20046;-74
2021/12/06 09:37:13;;;;;;;3.92;1.10;;;11.20;95.80;;;;;;5003696;28;20039;-76
2021/12/06 09:39:40;;;;;;;4.10;1.08;;;11.20;95.70;;;;;;5012229;28;20060;-75
2021/12/06 09:42:06;;;;;;;2.25;0.80;;;11.20;95.90;;;;;;4999753;28;20034;-75
2021/12/06 09:44:33;;;;;;;4.07;0.90;;;11.20;95.80;;;;;;4984824;28;20038;-73
2021/12/06 09:47:01;;;;;;;2.83;0.90;;;11.20;95.30;;;;;;5000208;28;20485;-76
2021/12/06 09:49:27;;;;;;;2.00;0.90;;;11.60;95.20;;;;;;4995957;28;20536;-75
2021/12/06 09:52:03;;;;;;;5.85;0.77;;;11.50;94.80;;;;;;5006612;28;20197;-74
2021/12/06 09:54:33;;;;;;;3.17;1.30;;;11.60;94.70;;;;;;4982346;28;20093;-73
2021/12/06 09:57:02;;;;;;;5.35;1.13;;;12.00;94.60;;;;;;4996304;28;20034;-75
2021/12/06 09:59:31;;;;;;;3.60;1.48;;;12.00;94.40;;;;;;5008241;28;20042;-73
2021/12/06 10:02:10;;;;;;;3.13;0.98;;;12.30;94.20;;;;;;5017746;28;20493;-73
2021/12/06 10:04:42;;;;;;;1.60;0.82;;;12.20;93.30;;;;;;5020784;28;20056;-75
2021/12/06 10:07:09;;;;;;;3.43;0.77;;;12.40;93.50;;;;;;5001400;28;20073;-73
2021/12/06 10:09:37;;;;;;;3.38;0.73;;;12.50;93.20;;;;;;5013827;28;20069;-75
2021/12/06 10:12:05;;;;;;;1.95;0.88;;;12.40;92.70;;;;;;5000381;28;20038;-73
2021/12/06 10:14:31;;;;;;;4.70;0.90;;;12.90;92.50;;;;;;5013514;28;20041;-73
2021/12/06 10:17:02;;;;;;;1.95;0.80;;;13.00;92.20;;;;;;5012866;28;20057;-73
2021/12/06 10:19:30;;;;;;;2.88;0.80;;;12.80;92.60;;;;;;5017681;28;20069;-77
2021/12/06 10:21:56;;;;;;;3.85;0.95;;;13.30;92.10;;;;;;4993985;28;20047;-72
2021/12/06 10:24:27;;;;;;;1.25;0.55;;;13.40;91.60;;;;;;5013718;28;20049;-76
2021/12/06 10:27:14;;;;;;;2.60;0.90;;;13.20;91.60;;;;;;4989417;28;20116;-74
2021/12/06 10:29:53;;;;;;;3.67;1.23;;;13.60;92.00;;;;;;4994910;28;20034;-72
2021/12/06 10:32:25;;;;;;;4.63;1.35;;;13.90;91.60;;;;;;4988066;28;20038;-72
2021/12/06 10:35:10;;;;;;;2.42;1.00;;;13.90;91.10;;;;;;4995517;28;20045;-74
2021/12/06 10:37:55;;;;;;;3.63;1.30;;;14.20;91.30;;;;;;4991813;28;20034;-74
2021/12/06 10:40:33;;;;;;;3.47;1.10;;;14.10;91.30;;;;;;4994285;28;20053;-74
2021/12/06 10:43:02;;;;;;;2.75;1.10;;;14.30;90.90;;;;;;5000908;28;20044;-73
2021/12/06 10:45:32;;;;;;;3.90;0.93;;;14.50;90.50;;;;;;5008908;28;20497;-73
2021/12/06 10:48:14;;;;;;;2.55;1.00;;;14.00;90.60;;;;;;5024029;28;20458;-73
2021/12/06 10:51:13;;;;;;;3.83;1.20;;;14.30;90.90;;;;;;5009256;28;20030;-75
2021/12/06 10:53:56;;;;;;;6.03;1.30;;;14.80;90.50;;;;;;5000834;28;20114;-74
2021/12/06 10:56:32;;;;;;;3.42;1.42;;;14.60;90.70;;;;;;5014534;28;20052;-74
2021/12/06 10:59:04;;;;;;;1.75;0.90;;;14.90;90.60;;;;;;5006149;28;20053;-76
2021/12/06 11:01:32;;;;;;;3.92;1.38;;;14.80;90.50;;;;;;5007401;28;20030;-74
2021/12/06 11:04:04;;;;;;;4.47;1.40;;;14.90;90.60;;;;;;4991994;28;20041;-72
2021/12/06 11:06:42;;;;;;;2.08;0.90;;;15.30;90.40;;;;;;5012499;28;20066;-76
2021/12/06 11:09:10;;;;;;;4.70;1.35;;;15.70;90.20;;;;;;4991259;28;20042;-77
2021/12/06 11:11:50;;;;;;;4.32;1.50;;;16.60;89.50;;;;;;4990365;28;20041;-74
2021/12/06 11:14:30;;;;;;;4.97;1.33;;;16.10;89.60;;;;;;4997902;28;20051;-78
2021/12/06 11:17:00;;;;;;;4.05;1.05;;;15.80;89.10;;;;;;5004653;28;20042;-74
2021/12/06 11:19:28;;;;;;;3.40;1.30;;;15.40;89.20;;;;;;5013185;28;20042;-73
2021/12/06 11:22:07;;;;;;;5.13;1.45;;;16.30;89.00;;;;;;5018100;28;20034;-73
2021/12/06 11:24:45;;;;;;;2.60;1.08;;;15.70;87.90;;;;;;5000169;28;20621;-75
2021/12/06 11:27:22;;;;;;;3.17;1.30;;;16.00;88.20;;;;;;4997890;28;20496;-76
2021/12/06 11:30:03;;;;;;;4.35;1.02;;;14.70;89.70;;;;;;5012900;28;20042;-77
2021/12/06 11:32:36;;;;;;;3.45;1.27;;;14.30;90.10;;;;;;4997565;28;20033;-76
2021/12/06 11:35:04;;;;;;;5.90;1.20;;;14.20;90.30;;;;;;4997769;28;20042;-77
2021/12/06 11:37:32;;;;;;;5.00;1.50;;;14.70;90.30;;;;;;4985504;28;20038;-75
2021/12/06 11:40:09;;;;;;;4.72;1.30;;;15.80;88.80;;;;;;4984483;28;20039;-73
2021/12/06 11:42:50;;;;;;;2.78;1.13;;;16.70;87.20;;;;;;5022607;28;20041;-73
2021/12/06 11:45:48;;;;;;;3.22;1.02;;;16.00;87.10;;;;;;4984735;28;20070;-75
2021/12/06 11:48:30;;;;;;;3.33;1.30;;;16.20;87.50;;;;;;4985564;28;20085;-73
2021/12/06 11:51:18;;;;;;;4.68;1.08;;;16.20;86.20;;;;;;4991987;28;20034;-77
2021/12/06 11:53:49;;;;;;;2.30;0.73;;;15.20;87.50;;;;;;4991288;28;20041;-72
2021/12/06 11:56:19;;;;;;;6.20;1.00;;;15.10;87.70;;;;;;4987789;28;20482;-78
2021/12/06 11:58:51;;;;;;;2.45;1.13;;;14.90;87.90;;;;;;4986397;28;20034;-76
2021/12/06 12:01:28;;;;;;;3.97;1.00;;;14.40;88.90;;;;;;4964260;28;20042;-74
2021/12/06 12:03:58;;;;;;;5.32;1.38;;;14.10;89.80;;;;;;4969063;28;20038;-73
2021/12/06 12:06:34;;;;;;;3.72;1.10;;;13.90;90.00;;;;;;5004189;28;20489;-72
2021/12/06 12:09:10;;;;;;;3.00;0.98;;;13.80;90.00;;;;;;5007538;28;20472;-73
2021/12/06 12:11:56;;;;;;;2.25;0.77;;;13.70;90.30;;;;;;4991037;28;20066;-71
2021/12/06 12:14:26;;;;;;;3.70;1.20;;;13.20;90.70;;;;;;5000739;28;20064;-73
2021/12/06 12:16:53;;;;;;;3.20;1.33;;;13.40;90.90;;;;;;4996971;28;20543;-72
2021/12/06 12:19:18;;;;;;;5.63;1.45;;;13.90;90.60;;;;;;5010657;28;20042;-76
2021/12/06 12:21:45;;;;;;;3.92;1.48;;;14.10;90.60;;;;;;4969121;28;20052;-73
2021/12/06 12:24:12;;;;;;;5.60;1.30;;;15.20;90.00;;;;;;4983019;28;20089;-72
2021/12/06 12:26:54;;;;;;;2.85;1.27;;;16.30;87.30;;;;;;4960159;28;20044;-76
2021/12/06 12:29:27;;;;;;;4.18;1.40;;;17.20;85.40;;;;;;4981018;28;20053;-75
2021/12/06 12:32:01;;;;;;;2.05;0.90;;;18.20;83.90;;;;;;4969127;28;20051;-73
2021/12/06 12:34:31;;;;;;;4.45;1.50;;;17.10;83.10;;;;;;4958826;28;20429;-73
2021/12/06 12:36:58;;;;;;;3.78;1.20;;;17.90;82.90;;;;;;4988354;28;20046;-73
2021/12/06 12:39:26;;;;;;;9.25;1.30;;;18.20;82.70;;;;;;4971237;28;20041;-77
2021/12/06 12:41:57;;;;;;;2.50;1.08;;;19.30;81.90;;;;;;4984249;28;20050;-73
2021/12/06 12:44:24;;;;;;;3.08;1.10;;;18.90;80.60;;;;;;5000252;28;20046;-76
2021/12/06 12:46:53;;;;;;;2.75;1.17;;;19.80;80.60;;;;;;5003487;28;20042;-74
2021/12/06 12:49:24;;;;;;;3.25;1.10;;;19.00;80.40;;;;;;4971756;28;20121;-76
2021/12/06 12:51:57;;;;;;;3.38;0.90;;;20.00;79.40;;;;;;4976777;28;20041;-75
2021/12/06 12:54:25;;;;;;;;;;;19.10;79.20;;;;;;5001177;28;20095;-76
2021/12/06 12:57:03;;;;;;;3.03;1.23;;;18.70;79.90;;;;;;5002874;28;19950;-72
2021/12/06 13:00:01;;;;;;;4.38;1.15;;;17.60;79.70;;;;;;5000740;28;20034;-73
2021/12/06 13:02:33;;;;;;;2.78;1.15;;;16.50;81.80;;;;;;4987974;28;20390;-74
2021/12/06 13:04:59;;;;;;;3.67;1.17;;;15.30;83.30;;;;;;5005753;28;20029;-75
2021/12/06 13:07:52;;;;;;;3.00;1.08;;;14.90;85.20;;;;;;5005123;28;20041;-75
2021/12/06 13:10:27;;;;;;;2.17;1.25;;;14.50;85.10;;;;;;5001662;28;20063;-72
2021/12/06 13:13:29;;;;;;;2.47;1.02;;;14.30;86.40;;;;;;5007030;28;20054;-75
2021/12/06 13:16:21;;;;;;;3.15;1.40;;;14.20;86.90;;;;;;5008753;28;20037;-76
2021/12/06 13:19:09;;;;;;;2.83;1.20;;;13.90;87.70;;;;;;5015129;28;20070;-72
2021/12/06 13:21:50;;;;;;;3.88;1.25;;;13.70;88.10;;;;;;4995250;28;20030;-76
2021/12/06 13:24:16;;;;;;;4.55;1.33;;;14.30;87.40;;;;;;5012783;28;20034;-73